Terminal Aerodrome Forecast
Issued by NWS

Current Version | Previous Version | Text Only | Print | Product List | Glossary On
Versions: 1 2 3 4 5 6 7 8 9 10 11 12 13 14 15 16 17 18 19 20
000
FTUS41 KBOX 270928 AAB
TAFACK
TAF AMD
KACK 270928Z 2709/2806 24004KT P6SM SCT200
     FM271200 17005KT P6SM BKN120
     FM271700 13011KT 4SM BR VCSH BKN070
     FM272000 13014G22KT 2SM BR VCSH OVC015
     FM272100 13015G25KT 2SM -SHRA BR OVC010 WS020/18040KT
     FM272300 17014G24KT 1SM -SHRA BR OVC008
     FM280300 19012G19KT 1SM BR VCSH OVC003=

USA.gov is the U.S. government's official web portal to all federal, state and local government web resources and services.